Active alerts

Hennepin
  Details for Hennepin Winter Weather Advisory


weather webcam more information weather webcam


Thunder radar more information blitzortung!


Rain radar more information rain snow radar


Visit our other weather sites:

Template documentation
and downloads

And another site


Earthquakes in the past 7 days

Earthquakes in the past 7 days of magnitude 2.0 or greater within 15000 mi
Update time = Jul 13 2024 7:21 am

Epicenter Near Magnitude Distance to Epicenter Local Time Link
5 km SSW of Volcano, Hawaii 2.0 0063053918 mi 1720872800Jul 13 2024 12:13 pm map
7 km SSW of Volcano, Hawaii 2.0 0063063918 mi 1720871914Jul 13 2024 11:58 am map
122 km S of McCarthy, Alaska 2.0 0036662278 mi 1720871150Jul 13 2024 11:45 am map
1 km E of Pāhala, Hawaii 2.5 0063353937 mi 1720870449Jul 13 2024 11:34 am map
9 km SSE of Volcano, Hawaii 2.3 0063043917 mi 1720867725Jul 13 2024 10:48 am map
8 km WNW of Wai‘ōhinu, Hawaii 2.4 0063613952 mi 1720867130Jul 13 2024 10:38 am map
5 km SE of Sparta, North Carolina 2.1 001390864 mi 1720863846Jul 13 2024 9:44 am map
92 km SSW of Alberto Oviedo Mota, B.C., MX 2.2 0024361514 mi 1720859750Jul 13 2024 8:35 am map
8 km SSE of Volcano, Hawaii 2.0 0063033917 mi 1720856066Jul 13 2024 7:34 am map
4 km WSW of Susitna, Alaska 2.9 0040682528 mi 1720855661Jul 13 2024 7:27 am map
41 km N of Chickaloon, Alaska 2.0 0039532457 mi 1720853646Jul 13 2024 6:54 am map
33 km W of Anchor Point, Alaska 2.4 0041742594 mi 1720851587Jul 13 2024 6:19 am map
31 km NW of Toyah, Texas 2.0 0017491087 mi 1720851376Jul 13 2024 6:16 am map
16 km NE of Sterling, Alaska 2.4 0040672527 mi 1720850903Jul 13 2024 6:08 am map
87 km S of Kokhanok, Alaska 2.5 0043362694 mi 1720850866Jul 13 2024 6:07 am map
38 km SSE of Pedro Bay, Alaska 3.9 0042552644 mi 1720850852Jul 13 2024 6:07 am map
151 km SW of Nikolski, Alaska 3.8 0054743401 mi 1720850634Jul 13 2024 6:03 am map
45 km NE of Chase, Alaska 2.1 0040182497 mi 1720849125Jul 13 2024 5:38 am map
170 km SSW of Severo-Kuril’sk, Russia 4.5 0076244737 mi 1720848402Jul 13 2024 5:26 am map
86 km SW of Uyuni, Bolivia 4.3 0077904840 mi 1720847911Jul 13 2024 5:18 am map
5 km SSW of Indios, Puerto Rico 2.6 0038732407 mi 1720847271Jul 13 2024 5:07 am map
5 km SSW of Volcano, Hawaii 2.0 0063053918 mi 1720846092Jul 13 2024 4:48 am map
2 km SSE of Luis Lopez, New Mexico 2.2 0016751041 mi 1720844049Jul 13 2024 4:14 am map
2 km SSE of Pāhala, Hawaii 3.0 0063383938 mi 1720842642Jul 13 2024 3:50 am map
4 km WNW of Orocovis, Puerto Rico 2.6 0038702405 mi 1720842043Jul 13 2024 3:40 am map
26 km WSW of Atiquipa, Peru 4.6 0070204362 mi 1720841741Jul 13 2024 3:35 am map
65 km SSE of Coldfoot, Alaska 2.1 0040562520 mi 1720837823Jul 13 2024 2:30 am map
83 km SE of Akutan, Alaska 4.6 0050613145 mi 1720837733Jul 13 2024 2:28 am map
91 km SE of Akutan, Alaska 3.6 0050623145 mi 1720835872Jul 13 2024 1:57 am map
5 km WSW of Liborio Negron Torres, Puerto Rico 2.4 0038572397 mi 1720830872Jul 13 2024 12:34 am map
16 km NW of Stagecoach, Nevada 2.0 0022251382 mi 1720827544Jul 12 2024 11:39 pm map
8 km SW of Volcano, Hawaii 2.5 0063083919 mi 1720827514Jul 12 2024 11:38 pm map
127 km SSE of Itoman, Japan 5.3 0111706941 mi 1720826327Jul 12 2024 11:18 pm map
272 km W of Hihifo, Tonga 4.5 0107406673 mi 1720825639Jul 12 2024 11:07 pm map
121 km WNW of Sinabang, Indonesia 4.8 0146499103 mi 1720825582Jul 12 2024 11:06 pm map
14 km SSE of Portage Creek, Alaska 2.7 0044792783 mi 1720822896Jul 12 2024 10:21 pm map
8 km SW of Brentwood, CA 2.9 0024821542 mi 1720820772Jul 12 2024 9:46 pm map
1 km ENE of Pāhala, Hawaii 2.2 0063353936 mi 1720817200Jul 12 2024 8:46 pm map
64 km SSE of Coldfoot, Alaska 2.1 0040572521 mi 1720815422Jul 12 2024 8:17 pm map
13 km W of San Simeon, CA 2.3 0025711598 mi 1720813957Jul 12 2024 7:52 pm map
38 km W of Anchor Point, Alaska 2.1 0041792597 mi 1720812768Jul 12 2024 7:32 pm map
off the coast of Oregon 3.6 0028751786 mi 1720812440Jul 12 2024 7:27 pm map
12 km ESE of Chalandrítsa, Greece 4.3 0087445433 mi 1720812403Jul 12 2024 7:26 pm map
103 km WNW of Rabaul, Papua New Guinea 5.3 0122727626 mi 1720811893Jul 12 2024 7:18 pm map
13 km SSE of Mammoth Lakes, CA 2.5 0022751413 mi 1720811330Jul 12 2024 7:08 pm map
19 km NNE of Chignik, Alaska 2.4 0045692839 mi 1720811075Jul 12 2024 7:04 pm map
46 km WSW of Atiquipa, Peru 4.8 0070204362 mi 1720810500Jul 12 2024 6:55 pm map
16 km E of Hualien City, Taiwan 4.4 0115747192 mi 1720810273Jul 12 2024 6:51 pm map
57 km E of Tarata, Peru 5.6 0073334556 mi 1720808344Jul 12 2024 6:19 pm map
Banda Sea 4.5 0140848752 mi 1720806463Jul 12 2024 5:47 pm map
13 km SSE of Livermore, CA 2.5 0024911548 mi 1720806143Jul 12 2024 5:42 pm map
24 km NNW of Kimbe, Papua New Guinea 4.4 0124997766 mi 1720805740Jul 12 2024 5:35 pm map
97 km WNW of Rabaul, Papua New Guinea 5.6 0122767628 mi 1720804368Jul 12 2024 5:12 pm map
16 km ENE of Honaunau-Napoopoo, Hawaii 2.2 0063333935 mi 1720804085Jul 12 2024 5:08 pm map
10 km NE of Pāhala, Hawaii 2.0 0063263931 mi 1720803812Jul 12 2024 5:03 pm map
11 km NW of Parkfield, CA 2.0 0024901547 mi 1720800671Jul 12 2024 4:11 pm map
7 km WNW of Anchorage, Alaska 2.0 0040392509 mi 1720799844Jul 12 2024 3:57 pm map
21 km SE of Kūh Sefīd, Iran 4.5 0112506990 mi 1720796540Jul 12 2024 3:02 pm map
1 km E of Pāhala, Hawaii 2.1 0063353936 mi 1720794945Jul 12 2024 2:35 pm map
251 km W of Houma, Tonga 4.1 0112046962 mi 1720792482Jul 12 2024 1:54 pm map
Rat Islands, Aleutian Islands, Alaska 2.3 0061693833 mi 1720792295Jul 12 2024 1:51 pm map
14 km NW of Point Possession, Alaska 2.3 0040842538 mi 1720788936Jul 12 2024 12:55 pm map
238 km ESE of Baubau, Indonesia 4.9 0143868939 mi 1720788379Jul 12 2024 12:46 pm map
13 km ESE of Tyonek, Alaska 2.6 0040872539 mi 1720787994Jul 12 2024 12:39 pm map
14 km ESE of Tyonek, Alaska 2.5 0040852538 mi 1720787933Jul 12 2024 12:38 pm map
4 km SW of Pāhala, Hawaii 2.3 0063413940 mi 1720786498Jul 12 2024 12:14 pm map
92 km SSW of Alberto Oviedo Mota, B.C., MX 2.2 0024371514 mi 1720785677Jul 12 2024 12:01 pm map
17 km NE of Hermleigh, Texas 2.2 001487924 mi 1720785355Jul 12 2024 11:55 am map
193 km S of Sanana, Indonesia 4.9 0140488729 mi 1720785013Jul 12 2024 11:50 am map
134 km SE of McCarthy, Alaska 3.4 0035712219 mi 1720784094Jul 12 2024 11:34 am map
6 km S of Volcano, Hawaii 2.4 0063043917 mi 1720781910Jul 12 2024 10:58 am map
10 km NE of Pāhala, Hawaii 2.2 0063263931 mi 1720780946Jul 12 2024 10:42 am map
10 km NE of Pāhala, Hawaii 2.4 0063273931 mi 1720780724Jul 12 2024 10:38 am map
53 km S of Whites City, New Mexico 2.1 0017521089 mi 1720780665Jul 12 2024 10:37 am map
147 km ENE of Bitung, Indonesia 4.8 0135168399 mi 1720780441Jul 12 2024 10:34 am map
90 km SE of Chignik, Alaska 3.4 0045202809 mi 1720778495Jul 12 2024 10:01 am map
229 km SE of Chignik, Alaska 3.8 0044462762 mi 1720778478Jul 12 2024 10:01 am map
51 km N of Isabela, Puerto Rico 3.6 0037632338 mi 1720777896Jul 12 2024 9:51 am map
23 km SW of Acarí, Peru 5.7 0069784336 mi 1720776632Jul 12 2024 9:30 am map
8 km S of Volcano, Hawaii 2.0 0063043917 mi 1720773710Jul 12 2024 8:41 am map
174 km W of Tofino, Canada 4.8 0026681658 mi 1720772431Jul 12 2024 8:20 am map
8 km SSE of La Parguera, Puerto Rico 2.1 0038672403 mi 1720771719Jul 12 2024 8:08 am map
8 km SSE of Volcano, Hawaii 2.3 0063033917 mi 1720767514Jul 12 2024 6:58 am map
7 km S of Bāramūla, India 4.5 0111416923 mi 1720767383Jul 12 2024 6:56 am map
14 km ENE of Pappadátes, Greece 4.3 0085795330 mi 1720766907Jul 12 2024 6:48 am map
13 km NE of Mendoza, Argentina 3.9 0089865584 mi 1720766386Jul 12 2024 6:39 am map
11 km S of Salinas, Puerto Rico 2.4 0039112430 mi 1720766158Jul 12 2024 6:35 am map
20 km S of Morton, Washington 3.5 0022481397 mi 1720764963Jul 12 2024 6:16 am map
111 km ESE of Yakutat, Alaska 3.1 0033612088 mi 1720764797Jul 12 2024 6:13 am map
central East Pacific Rise 4.6 0056203492 mi 1720763222Jul 12 2024 5:47 am map
25 km ESE of Fox River, Alaska 3.8 0040702529 mi 1720761965Jul 12 2024 5:26 am map
11 km NNE of Brooktrails, CA 2.6 0025261570 mi 1720761224Jul 12 2024 5:13 am map
6 km WSW of Estancias de Florida, Puerto Rico 3.3 0038502392 mi 1720761188Jul 12 2024 5:13 am map
58 km WNW of Quellón, Chile 4.1 0099506183 mi 1720760925Jul 12 2024 5:08 am map
Komandorskiye Ostrova, Russia region 5.1 0065634078 mi 1720760032Jul 12 2024 4:53 am map
10 km E of Blackhawk, CA 3.0 0024861545 mi 1720758587Jul 12 2024 4:29 am map
10 km SSE of Maria Antonia, Puerto Rico 2.4 0038782410 mi 1720758394Jul 12 2024 4:26 am map
113 km NNE of Hihifo, Tonga 5.0 0104166472 mi 1720756554Jul 12 2024 3:55 am map
12 km NW of Parkfield, CA 2.6 0024931549 mi 1720756003Jul 12 2024 3:46 am map
6 km E of La Parguera, Puerto Rico 2.5 0038632400 mi 1720755706Jul 12 2024 3:41 am map
70 km W of San Antonio de los Cobres, Argentina 4.2 0081225047 mi 1720755104Jul 12 2024 3:31 am map
6 km S of Volcano, Hawaii 2.5 0063043917 mi 1720755047Jul 12 2024 3:30 am map
274 km W of Ferndale, California 3.1 0028181751 mi 1720753668Jul 12 2024 3:07 am map
6 km S of Volcano, Hawaii 2.4 0063053918 mi 1720752984Jul 12 2024 2:56 am map
0 km NNE of Assaria, Kansas 2.4 000773480 mi 1720749282Jul 12 2024 1:54 am map
281 km NE of Hadibu, Yemen 4.9 0127037894 mi 1720749069Jul 12 2024 1:51 am map
Rat Islands, Aleutian Islands, Alaska 3.0 0061653831 mi 1720747052Jul 12 2024 1:17 am map
1 km SE of Mullan, Idaho 2.0 0017461085 mi 1720744007Jul 12 2024 12:26 am map
central East Pacific Rise 5.8 0056203492 mi 1720743582Jul 12 2024 12:19 am map
69 km W of Karluk, Alaska 2.0 0043872726 mi 1720742171Jul 11 2024 11:56 pm map
3 km WSW of Redmond, Washington 2.5 0022241382 mi 1720741746Jul 11 2024 11:49 pm map
37 km N of Dorado, Puerto Rico 3.0 0038332382 mi 1720740679Jul 11 2024 11:31 pm map
39 km WNW of Anderson, Alaska 2.2 0040502517 mi 1720739887Jul 11 2024 11:18 pm map
93 km E of McCarthy, Alaska 2.3 0035722220 mi 1720739396Jul 11 2024 11:09 pm map
7 km SW of Volcano, Hawaii 2.2 0063073919 mi 1720738093Jul 11 2024 10:48 pm map
south of the Fiji Islands 4.5 0117527302 mi 1720737285Jul 11 2024 10:34 pm map
40 km WNW of Valdez, Alaska 2.8 0038752408 mi 1720735803Jul 11 2024 10:10 pm map
8 km SW of Volcano, Hawaii 2.4 0063083920 mi 1720731974Jul 11 2024 9:06 pm map
3 km WSW of Pāhala, Hawaii 2.2 0063403940 mi 1720729931Jul 11 2024 8:32 pm map
5 km S of Volcano, Hawaii 2.3 0063043917 mi 1720728081Jul 11 2024 8:01 pm map
32 km SE of Mina, Nevada 2.6 0021611343 mi 1720726758Jul 11 2024 7:39 pm map
201 km WSW of Tofino, Canada 4.7 0026941674 mi 1720719267Jul 11 2024 5:34 pm map
6 km S of Volcano, Hawaii 2.2 0063053918 mi 1720718629Jul 11 2024 5:23 pm map
17 km SW of Coronado, CA 2.8 0024741537 mi 1720716940Jul 11 2024 4:55 pm map
76 km SW of Modisi, Indonesia 4.7 0138298593 mi 1720715061Jul 11 2024 4:24 pm map
289 km S of Ambon, Indonesia 4.4 0141308780 mi 1720714781Jul 11 2024 4:19 pm map
187 km W of Tofino, Canada 5.4 0026811666 mi 1720714641Jul 11 2024 4:17 pm map
7 km W of Primo Tapia, B.C., MX 2.0 0024761539 mi 1720713289Jul 11 2024 3:54 pm map
209 km WSW of Tofino, Canada 6.4 0027021679 mi 1720710527Jul 11 2024 3:08 pm map
4 km NNE of Ninilchik, Alaska 2.3 0041282565 mi 1720708328Jul 11 2024 2:32 pm map
7 km W of Two Rivers, Alaska 2.3 0039252439 mi 1720705221Jul 11 2024 1:40 pm map
7 km SW of Volcano, Hawaii 3.1 0063073919 mi 1720705159Jul 11 2024 1:39 pm map
7 km SW of Volcano, Hawaii 2.1 0063073919 mi 1720704656Jul 11 2024 1:30 pm map
1 km NNE of Prattville, CA 2.1 0023241444 mi 1720701090Jul 11 2024 12:31 pm map
193 km SW of Sarangani, Philippines 4.4 0134108333 mi 1720701056Jul 11 2024 12:30 pm map
7 km WNW of Belén, Nicaragua 4.6 0037742345 mi 1720699449Jul 11 2024 12:04 pm map
7 km SW of Volcano, Hawaii 2.5 0063073919 mi 1720698374Jul 11 2024 11:46 am map
52 km S of Chignik, Alaska 2.5 0045802846 mi 1720698171Jul 11 2024 11:42 am map
66 km SE of Denali National Park, Alaska 2.1 0040822537 mi 1720693157Jul 11 2024 10:19 am map
28 km ENE of Oakhurst, CA 2.2 0023181440 mi 1720691752Jul 11 2024 9:55 am map
126 km WNW of Yakutat, Alaska 2.4 0035792224 mi 1720691155Jul 11 2024 9:45 am map
12 km SSW of Pleasant Plains, Arkansas 2.2 001057657 mi 1720691083Jul 11 2024 9:44 am map
10 km W of Point MacKenzie, Alaska 2.4 0040462514 mi 1720690879Jul 11 2024 9:41 am map
12 km of Petrolia, CA 2.1 0025661594 mi 1720690796Jul 11 2024 9:39 am map
10 km NE of Pāhala, Hawaii 2.0 0063263931 mi 1720690526Jul 11 2024 9:35 am map
120 km SSW of Merizo Village, Guam 5.4 0114337104 mi 1720690054Jul 11 2024 9:27 am map
32 km NW of Pante Makasar, Timor Leste 4.5 0146459100 mi 1720686862Jul 11 2024 8:34 am map
10 km NE of Pāhala, Hawaii 2.2 0063263931 mi 1720686327Jul 11 2024 8:25 am map
8 km SSE of Volcano, Hawaii 2.4 0063033917 mi 1720684566Jul 11 2024 7:56 am map
5 km SW of Liborio Negron Torres, Puerto Rico 3.0 0038602399 mi 1720682664Jul 11 2024 7:24 am map
37 km WNW of Nanwalek, Alaska 2.1 0041812598 mi 1720681172Jul 11 2024 6:59 am map
66 km WNW of La Ligua, Chile 4.3 0088485498 mi 1720677573Jul 11 2024 5:59 am map
30 km NW of Eureka Roadhouse, Alaska 2.4 0039152433 mi 1720676843Jul 11 2024 5:47 am map
39 km S of Goldfield, Nevada 2.1 0021551339 mi 1720676590Jul 11 2024 5:43 am map
25 km WSW of Stella, Puerto Rico 3.2 0038112368 mi 1720675526Jul 11 2024 5:25 am map
15 km N of Sooke, Canada 2.1 0023361451 mi 1720672689Jul 11 2024 4:38 am map
133 km E of Yamada, Japan 4.1 0090605630 mi 1720672009Jul 11 2024 4:26 am map
7 km SW of Volcano, Hawaii 2.4 0063073919 mi 1720671828Jul 11 2024 4:23 am map
159 km WSW of Adak, Alaska 2.9 0060163738 mi 1720671706Jul 11 2024 4:21 am map
Banda Sea 4.5 0140528732 mi 1720670672Jul 11 2024 4:04 am map
4 km SSW of Volcano, Hawaii 2.0 0063043917 mi 1720670266Jul 11 2024 3:57 am map
53 km E of Chenega, Alaska 2.0 0038752408 mi 1720668403Jul 11 2024 3:26 am map
2 km SSE of Afyonkarahisar, Turkey 4.2 0091565689 mi 1720668284Jul 11 2024 3:24 am map
6 km W of Maricao, Puerto Rico 2.4 0038412386 mi 1720668066Jul 11 2024 3:21 am map
10 km NW of Nyūzen, Japan 4.9 0095815954 mi 1720666878Jul 11 2024 3:01 am map
9 km ENE of Honoria, Peru 4.8 0062493883 mi 1720666519Jul 11 2024 2:55 am map
6 km SW of Volcano, Hawaii 2.0 0063063919 mi 1720665336Jul 11 2024 2:35 am map
6 km NNW of Walker, CA 2.7 0022711411 mi 1720665242Jul 11 2024 2:34 am map
59 km ESE of Pope-Vannoy Landing, Alaska 3.2 0042432637 mi 1720664617Jul 11 2024 2:23 am map
16 km N of Indio, CA 2.6 0023041432 mi 1720664256Jul 11 2024 2:17 am map
106 km WSW of Sangay, Philippines 7.1 0132848254 mi 1720663997Jul 11 2024 2:13 am map
101 km E of McCarthy, Alaska 2.8 0035642215 mi 1720663865Jul 11 2024 2:11 am map
15 km SE of Stockdale, Texas 2.0 0017951115 mi 1720662717Jul 11 2024 1:51 am map
6 km SE of Maria Antonia, Puerto Rico 2.0 0038742407 mi 1720662168Jul 11 2024 1:42 am map
Izu Islands, Japan region 4.5 0100306233 mi 1720659585Jul 11 2024 12:59 am map
42 km WSW of Kuqa, China 4.3 0103896455 mi 1720658956Jul 11 2024 12:49 am map
294 km W of Ferndale, California 3.1 0028381764 mi 1720657819Jul 11 2024 12:30 am map
67 km NW of San Antonio de los Cobres, Argentina 4.4 0080955030 mi 1720657307Jul 11 2024 12:21 am map
South Sandwich Islands region 5.0 0131558174 mi 1720655520Jul 10 2024 11:52 pm map
65 km NNE of Calama, Chile 4.0 0078404872 mi 1720651368Jul 10 2024 10:42 pm map
268 km S of False Pass, Alaska 3.5 0049653085 mi 1720649573Jul 10 2024 10:12 pm map
19 km ESE of Denali National Park, Alaska 2.7 0041112554 mi 1720646415Jul 10 2024 9:20 pm map
214 km SW of Bengkulu, Indonesia 4.8 0154029570 mi 1720645255Jul 10 2024 9:00 pm map
103 km E of McCarthy, Alaska 2.7 0035622213 mi 1720643559Jul 10 2024 8:32 pm map
52 km W of Mentone, Texas 2.0 0017381080 mi 1720643547Jul 10 2024 8:32 pm map
15 km ESE of Pāhala, Hawaii 2.1 0063313934 mi 1720642109Jul 10 2024 8:08 pm map
22 km NNE of Hualien City, Taiwan 4.1 0115567181 mi 1720641280Jul 10 2024 7:54 pm map
southern Mid-Atlantic Ridge 5.1 0130118085 mi 1720640937Jul 10 2024 7:48 pm map
64 km N of Tierras Nuevas Poniente, Puerto Rico 2.8 0037942358 mi 1720639873Jul 10 2024 7:31 pm map
18 km E of Pāhala, Hawaii 2.0 0063223928 mi 1720639504Jul 10 2024 7:25 pm map
15 km W of Cantua Creek, CA 2.5 0024571527 mi 1720633570Jul 10 2024 5:46 pm map
12 km NE of Niltepec, Mexico 4.3 0031401951 mi 1720633304Jul 10 2024 5:41 pm map
230 km SW of Bengkulu, Indonesia 4.4 0154159579 mi 1720631922Jul 10 2024 5:18 pm map
91 km ESE of Nikolai, Alaska 2.6 0041822599 mi 1720631448Jul 10 2024 5:10 pm map
10 km NE of Pāhala, Hawaii 2.1 0063263931 mi 1720630860Jul 10 2024 5:01 pm map
121 km NNW of Ambler, Alaska 2.7 0044492765 mi 1720627042Jul 10 2024 3:57 pm map
58 km W of Abra Pampa, Argentina 4.5 0080114978 mi 1720625975Jul 10 2024 3:39 pm map
220 km SW of Bengkulu, Indonesia 5.4 0154079573 mi 1720625562Jul 10 2024 3:32 pm map
228 km SSW of Severo-Kuril’sk, Russia 4.2 0076714767 mi 1720624578Jul 10 2024 3:16 pm map
11 km E of Pāhala, Hawaii 2.2 0063283932 mi 1720622861Jul 10 2024 2:47 pm map
157 km SE of Kuqa, China 4.4 0104956522 mi 1720618482Jul 10 2024 1:34 pm map
36 km S of Sacsamarca, Peru 4.4 0068494256 mi 1720614142Jul 10 2024 12:22 pm map
15 km W of Cantua Creek, CA 2.5 0024571527 mi 1720613077Jul 10 2024 12:04 pm map
24 km W of Pasuquin, Philippines 4.8 0122037583 mi 1720612815Jul 10 2024 12:00 pm map
10 km NE of Pāhala, Hawaii 2.3 0063263931 mi 1720612013Jul 10 2024 11:46 am map
81 km NNE of Camiña, Chile 4.1 0074784647 mi 1720606186Jul 10 2024 10:09 am map
10 km NE of Pāhala, Hawaii 2.3 0063263931 mi 1720605982Jul 10 2024 10:06 am map
13 km WSW of Yeşilyurt, Turkey 4.3 0095725948 mi 1720605272Jul 10 2024 9:54 am map
146 km N of Mosquera, Colombia 4.7 0047842973 mi 1720605216Jul 10 2024 9:53 am map
101 km SE of Halibut Cove, Alaska 4.1 0040512517 mi 1720602012Jul 10 2024 9:00 am map
13 km SE of Middletown, CA 2.0 0024981552 mi 1720600772Jul 10 2024 8:39 am map
132 km ESE of Tomioka, Japan 4.6 0093265795 mi 1720600758Jul 10 2024 8:39 am map
1 km ENE of Yauco, Puerto Rico 2.1 0038652402 mi 1720599485Jul 10 2024 8:18 am map
92 km SSW of Alberto Oviedo Mota, B.C., MX 2.1 0024371514 mi 1720599181Jul 10 2024 8:13 am map
92 km SSW of Alberto Oviedo Mota, B.C., MX 3.0 0024361514 mi 1720598859Jul 10 2024 8:07 am map
5 km SSW of Volcano, Hawaii 2.3 0063053917 mi 1720595384Jul 10 2024 7:09 am map
93 km SSW of Alberto Oviedo Mota, B.C., MX 3.2 0024371514 mi 1720591900Jul 10 2024 6:11 am map
50 km SSE of Denali National Park, Alaska 2.2 0041132556 mi 1720589849Jul 10 2024 5:37 am map
south of Africa 6.6 0155929689 mi 1720587342Jul 10 2024 4:55 am map
76 km W of Petrolia, CA 2.7 0026411641 mi 1720586511Jul 10 2024 4:41 am map
25 km ESE of Willow Creek, CA 2.0 0024711536 mi 1720586405Jul 10 2024 4:40 am map
36 km SSW of Fort Greely, Alaska 2.6 0038452389 mi 1720585730Jul 10 2024 4:28 am map
23 km ESE of Denali National Park, Alaska 2.5 0041082553 mi 1720584960Jul 10 2024 4:16 am map
6 km NNW of Smiths Ferry, Idaho 2.5 0017971117 mi 1720583829Jul 10 2024 3:57 am map
131 km SSW of Hihifo, Tonga 4.6 0106476616 mi 1720582829Jul 10 2024 3:40 am map
35 km NNW of Valdez, Alaska 2.3 0038512393 mi 1720579754Jul 10 2024 2:49 am map
54 km WSW of Tatitlek, Alaska 2.8 0039022424 mi 1720577399Jul 10 2024 2:09 am map
12 km NE of Basmat, India 4.5 0128047956 mi 1720575891Jul 10 2024 1:44 am map
4 km SSW of Pāhala, Hawaii 2.2 0063403940 mi 1720574989Jul 10 2024 1:29 am map
central East Pacific Rise 4.8 0067074167 mi 1720574782Jul 10 2024 1:26 am map
11 km NNE of Pinnacles, CA 2.7 0024971552 mi 1720572401Jul 10 2024 12:46 am map
33 km WSW of Petersville, Alaska 2.5 0041112554 mi 1720572187Jul 10 2024 12:43 am map
88 km S of La Romana, Dominican Republic 4.0 0037842351 mi 1720572168Jul 10 2024 12:42 am map
113 km ESE of Akutan, Alaska 3.4 0050063111 mi 1720571730Jul 10 2024 12:35 am map
7 km S of Volcano, Hawaii 2.0 0063053918 mi 1720570764Jul 10 2024 12:19 am map
3 km NNE of Fairwood, Washington 2.1 0018671160 mi 1720569418Jul 9 2024 11:56 pm map
57 km E of Chase, Alaska 2.0 0039882478 mi 1720565818Jul 9 2024 10:56 pm map
5 km SSW of Volcano, Hawaii 2.8 0063043917 mi 1720565789Jul 9 2024 10:56 pm map
2 km ESE of Steele, Missouri 2.3 001022635 mi 1720565669Jul 9 2024 10:54 pm map
262 km SW of Longyearbyen, Svalbard and Jan Mayen 5.0 0054443383 mi 1720563645Jul 9 2024 10:20 pm map
13 km WSW of Yeşilyurt, Turkey 4.1 0095715947 mi 1720561264Jul 9 2024 9:41 pm map
6 km NE of Tallaboa Alta, Puerto Rico 2.5 0038722406 mi 1720559445Jul 9 2024 9:10 pm map
7 km SW of Volcano, Hawaii 2.5 0063073919 mi 1720555350Jul 9 2024 8:02 pm map
26 km WSW of Salamatof, Alaska 3.5 0041352569 mi 1720554786Jul 9 2024 7:53 pm map
western Xizang 4.0 0112326979 mi 1720552687Jul 9 2024 7:18 pm map
13 km N of Castaic, CA 2.1 0024321511 mi 1720552572Jul 9 2024 7:16 pm map
92 km SSW of Alberto Oviedo Mota, B.C., MX 2.7 0024371514 mi 1720552132Jul 9 2024 7:08 pm map
7 km S of Pāhala, Hawaii 2.3 0063403940 mi 1720551364Jul 9 2024 6:56 pm map
10 km SW of Honoka‘a, Hawaii 2.7 0062823903 mi 1720548969Jul 9 2024 6:16 pm map
38 km S of Petacalco, Mexico 4.2 0031371949 mi 1720547497Jul 9 2024 5:51 pm map
71 km E of San Vicente, Mexico 2.5 0024351513 mi 1720546932Jul 9 2024 5:42 pm map
72 km ENE of Petersburg, Alaska 2.5 0029741848 mi 1720541149Jul 9 2024 4:05 pm map
45 km ESE of Pedro Bay, Alaska 2.1 0042282627 mi 1720539636Jul 9 2024 3:40 pm map
4 km WNW of San Sebastián, Puerto Rico 2.5 0038242376 mi 1720539217Jul 9 2024 3:33 pm map
70 km S of Pangai, Tonga 5.2 0109116780 mi 1720538910Jul 9 2024 3:28 pm map
11 km NW of Stanley, Idaho 2.5 0017151065 mi 1720537194Jul 9 2024 2:59 pm map
57 km W of Tyonek, Alaska 2.8 0041562582 mi 1720535424Jul 9 2024 2:30 pm map
Volcano Islands, Japan region 4.5 0105826575 mi 1720535381Jul 9 2024 2:29 pm map
47 km N of Maba, Indonesia 4.6 0134608364 mi 1720533001Jul 9 2024 1:50 pm map
70 km NE of Cruz Bay, U.S. Virgin Islands 3.7 0039372447 mi 1720531887Jul 9 2024 1:31 pm map
79 km SE of Perryville, Alaska 3.1 0046042860 mi 1720531848Jul 9 2024 1:30 pm map
25 km NW of Stanley, Idaho 2.2 0017251072 mi 1720528936Jul 9 2024 12:42 pm map
0 km E of Pāhala, Hawaii 2.3 0063363937 mi 1720527876Jul 9 2024 12:24 pm map
7 km SW of Volcano, Hawaii 2.0 0063073919 mi 1720527568Jul 9 2024 12:19 pm map
66 km ENE of San Vicente, Mexico 2.1 0024321511 mi 1720526453Jul 9 2024 12:00 pm map
92 km SSW of Alberto Oviedo Mota, B.C., MX 2.4 0024371514 mi 1720526445Jul 9 2024 12:00 pm map
62 km ENE of San Vicente, Mexico 2.1 0024361514 mi 1720526383Jul 9 2024 11:59 am map
5 km SSW of Guánica, Puerto Rico 2.3 0038702405 mi 1720523856Jul 9 2024 11:17 am map
5 km NNW of Kalifornsky, Alaska 2.8 0041112555 mi 1720522852Jul 9 2024 11:00 am map
14 km S of Halibut Cove, Alaska 2.3 0041112554 mi 1720521749Jul 9 2024 10:42 am map
92 km SSW of Alberto Oviedo Mota, B.C., MX 2.0 0024361514 mi 1720520214Jul 9 2024 10:16 am map
24 km WNW of Old Harbor, Alaska 3.7 0042762657 mi 1720518914Jul 9 2024 9:55 am map
1 km ENE of Pāhala, Hawaii 2.2 0063353936 mi 1720517937Jul 9 2024 9:38 am map
south of the Kermadec Islands 4.9 0122147589 mi 1720517893Jul 9 2024 9:38 am map
13 km SSW of İçmeler, Turkey 4.8 0092145725 mi 1720516311Jul 9 2024 9:11 am map
66 km E of Juneau, Alaska 2.3 0030761911 mi 1720515744Jul 9 2024 9:02 am map
24 km SSW of Leilani Estates, Hawaii 2.1 0062943911 mi 1720512107Jul 9 2024 8:01 am map
122 km WNW of Yakutat, Alaska 2.2 0035772223 mi 1720508939Jul 9 2024 7:08 am map
114 km WNW of Yakutat, Alaska 2.2 0035702218 mi 1720508763Jul 9 2024 7:06 am map
7 km SSW of Volcano, Hawaii 2.0 0063063918 mi 1720508277Jul 9 2024 6:57 am map
33 km WSW of Mentone, Texas 2.4 0017381080 mi 1720508233Jul 9 2024 6:57 am map
8 km SSE of Volcano, Hawaii 2.0 0063033917 mi 1720507398Jul 9 2024 6:43 am map
8 km SSE of Volcano, Hawaii 2.5 0063033917 mi 1720507182Jul 9 2024 6:39 am map
6 km SSW of Volcano, Hawaii 2.6 0063053918 mi 1720506393Jul 9 2024 6:26 am map
5 km S of Volcano, Hawaii 2.4 0063043917 mi 1720505356Jul 9 2024 6:09 am map
5 km SSE of Guánica, Puerto Rico 2.3 0038722406 mi 1720505072Jul 9 2024 6:04 am map
57 km E of Juneau, Alaska 2.6 0030841917 mi 1720498924Jul 9 2024 4:22 am map
southern Mid-Atlantic Ridge 5.1 0114067087 mi 1720498120Jul 9 2024 4:08 am map
25 km SSE of Monte Patria, Chile 4.3 0087275423 mi 1720494149Jul 9 2024 3:02 am map
12 km WSW of Kenai, Alaska 2.9 0041172558 mi 1720492259Jul 9 2024 2:30 am map
6 km S of Volcano, Hawaii 2.8 0063043917 mi 1720486735Jul 9 2024 12:58 am map
6 km S of Volcano, Hawaii 2.7 0063043917 mi 1720486677Jul 9 2024 12:57 am map
6 km SSW of Volcano, Hawaii 2.5 0063053918 mi 1720486419Jul 9 2024 12:53 am map
64 km NE of Tennant Creek, Australia 4.4 0147769181 mi 1720486331Jul 9 2024 12:52 am map
5 km NE of Cabazon, CA 2.2 0023371452 mi 1720484370Jul 9 2024 12:19 am map
65 km WSW of Atiquipa, Peru 4.5 0070254365 mi 1720483816Jul 9 2024 12:10 am map
9 km SW of La Parguera, Puerto Rico 2.7 0038612399 mi 1720481288Jul 8 2024 11:28 pm map
0 km W of Pāhala, Hawaii 3.4 0063373938 mi 1720478356Jul 8 2024 10:39 pm map
57 km E of Juneau, Alaska 2.9 0030851917 mi 1720478197Jul 8 2024 10:36 pm map
18 km SSE of Stockdale, Texas 2.9 0017991118 mi 1720476374Jul 8 2024 10:06 pm map
60 km E of Hengchun, Taiwan 4.2 0117877324 mi 1720475437Jul 8 2024 9:50 pm map
3 km SSW of Tallaboa, Puerto Rico 2.3 0038792410 mi 1720475276Jul 8 2024 9:47 pm map
12 km E of Unalaska, Alaska 3.3 0051393193 mi 1720474570Jul 8 2024 9:36 pm map
7 km SW of Volcano, Hawaii 2.2 0063073919 mi 1720474166Jul 8 2024 9:29 pm map
34 km SSW of Hawthorne, Nevada 3.3 0022321387 mi 1720473570Jul 8 2024 9:19 pm map
33 km SSW of Hawthorne, Nevada 3.2 0022311386 mi 1720473321Jul 8 2024 9:15 pm map
34 km WSW of Ackerly, Texas 2.1 001577980 mi 1720473219Jul 8 2024 9:13 pm map
7 km SW of Volcano, Hawaii 2.2 0063073919 mi 1720473161Jul 8 2024 9:12 pm map
17 km ESE of Mayfield, Utah 3.4 0016341016 mi 1720472444Jul 8 2024 9:00 pm map
19 km S of Weston, Colorado 3.0 001305811 mi 1720470934Jul 8 2024 8:35 pm map
92 km SSW of Alberto Oviedo Mota, B.C., MX 2.3 0024371514 mi 1720468965Jul 8 2024 8:02 pm map
6 km SW of Volcano, Hawaii 2.0 0063063918 mi 1720468184Jul 8 2024 7:49 pm map
32 km SSW of Hawthorne, Nevada 2.5 0022301386 mi 1720467495Jul 8 2024 7:38 pm map
45 km WSW of Atiquipa, Peru 5.4 0070234364 mi 1720467208Jul 8 2024 7:33 pm map
9 km E of Pāhala, Hawaii 2.3 0063293933 mi 1720465380Jul 8 2024 7:03 pm map
101 km E of McCarthy, Alaska 2.6 0035642215 mi 1720464592Jul 8 2024 6:49 pm map
188 km S of Atka, Alaska 3.5 0057613580 mi 1720461944Jul 8 2024 6:05 pm map
35 km NNW of Charlotte Amalie, U.S. Virgin Islands 2.7 0039192435 mi 1720458906Jul 8 2024 5:15 pm map
25 km WSW of Ashkāsham, Afghanistan 4.2 0108296729 mi 1720453853Jul 8 2024 3:50 pm map
3 km SSW of Pāhala, Hawaii 2.3 0063403939 mi 1720453632Jul 8 2024 3:47 pm map
27 km ESE of Cascade, Idaho 2.1 0017651097 mi 1720453022Jul 8 2024 3:37 pm map
212 km W of Tofino, Canada 5.2 0027061681 mi 1720451208Jul 8 2024 3:06 pm map
36 km WSW of Tobelo, Indonesia 4.5 0134548360 mi 1720450183Jul 8 2024 2:49 pm map
71 km SSW of Kaktovik, Alaska 2.7 0039312443 mi 1720448290Jul 8 2024 2:18 pm map
54 km WSW of Pistol River, Oregon 2.2 0025561588 mi 1720447813Jul 8 2024 2:10 pm map
60 km WSW of Atiquipa, Peru 5.3 0070164359 mi 1720447411Jul 8 2024 2:03 pm map
8 km SSE of Volcano, Hawaii 2.0 0063043917 mi 1720447268Jul 8 2024 2:01 pm map
59 km SSW of Kaktovik, Alaska 3.3 0039142432 mi 1720446225Jul 8 2024 1:43 pm map
51 km NNW of San Antonio de los Cobres, Argentina 4.5 0081055036 mi 1720444699Jul 8 2024 1:18 pm map
44 km NE of Chase, Alaska 2.6 0040142494 mi 1720444620Jul 8 2024 1:17 pm map
139 km NE of Lospalos, Timor Leste 4.2 0142888878 mi 1720444360Jul 8 2024 1:12 pm map
0 km NW of Pāhala, Hawaii 2.1 0063373937 mi 1720443141Jul 8 2024 12:52 pm map
14 km N of Fillmore, CA 2.1 0024571527 mi 1720442531Jul 8 2024 12:42 pm map
112 km NW of Yakutat, Alaska 2.0 0035572211 mi 1720436313Jul 8 2024 10:58 am map
57 km E of Juneau, Alaska 2.8 0030851917 mi 1720435574Jul 8 2024 10:46 am map
3 km WSW of Pāhala, Hawaii 2.1 0063403939 mi 1720434983Jul 8 2024 10:36 am map
15 km S of Volcano, Hawaii 2.0 0063083920 mi 1720433479Jul 8 2024 10:11 am map
8 km NNW of The Geysers, CA 2.0 0025161564 mi 1720432552Jul 8 2024 9:55 am map
1 km E of Santo Domingo, Panama 5.3 0041702591 mi 1720432495Jul 8 2024 9:54 am map
4 km SSE of Pāhala, Hawaii 2.0 0063383938 mi 1720429295Jul 8 2024 9:01 am map
90 km ESE of Red Dog Mine, Alaska 2.8 0045462825 mi 1720429091Jul 8 2024 8:58 am map
0 km SW of Pāhala, Hawaii 2.3 0063373937 mi 1720427314Jul 8 2024 8:28 am map
50 km ENE of Aras-asan, Philippines 4.8 0128037955 mi 1720426745Jul 8 2024 8:19 am map
0 km SW of Pāhala, Hawaii 2.0 0063373938 mi 1720425078Jul 8 2024 7:51 am map
65 km E of Juneau, Alaska 3.0 0030771912 mi 1720424889Jul 8 2024 7:48 am map
35 km N of Valdez, Alaska 2.6 0038472390 mi 1720424223Jul 8 2024 7:37 am map
0 km W of Pāhala, Hawaii 2.3 0063373938 mi 1720424037Jul 8 2024 7:33 am map
14 km SSW of Pleasant Plains, Arkansas 2.0 001059658 mi 1720423992Jul 8 2024 7:33 am map
7 km S of Banning, CA 2.5 0023531462 mi 1720418252Jul 8 2024 5:57 am map
14 km WNW of Cacouna, Canada 2.0 0018381142 mi 1720415691Jul 8 2024 5:14 am map
1 km S of Pāhala, Hawaii 2.2 0063383938 mi 1720415053Jul 8 2024 5:04 am map
22 km SSW of Newport Beach, CA 2.7 0024641531 mi 1720414481Jul 8 2024 4:54 am map
25 km W of Kailua-Kona, Hawaii 2.2 0063653955 mi 1720410392Jul 8 2024 3:46 am map
65 km NNE of Calama, Chile 4.3 0078324866 mi 1720409999Jul 8 2024 3:39 am map
10 km WSW of Wilkerson, CA 2.5 0022611405 mi 1720405056Jul 8 2024 2:17 am map
63 km SSW of Whites City, New Mexico 2.0 0017641096 mi 1720400523Jul 8 2024 1:02 am map
61 km NNW of Charlotte Amalie, U.S. Virgin Islands 3.4 0038952420 mi 1720400152Jul 8 2024 12:55 am map
97 km WSW of Masachapa, Nicaragua 4.7 0037782347 mi 1720399129Jul 8 2024 12:38 am map
14 km ENE of Falls City, Texas 2.2 0018051121 mi 1720398774Jul 8 2024 12:32 am map
92 km SSW of Alberto Oviedo Mota, B.C., MX 2.1 0024361514 mi 1720395232Jul 7 2024 11:33 pm map
5 km ESE of Lajas, Puerto Rico 2.3 0038552396 mi 1720393504Jul 7 2024 11:05 pm map
92 km SSW of Alberto Oviedo Mota, B.C., MX 3.8 0024371514 mi 1720393319Jul 7 2024 11:01 pm map
61 km SE of Pope-Vannoy Landing, Alaska 2.3 0042502641 mi 1720393175Jul 7 2024 10:59 pm map
6 km S of Volcano, Hawaii 2.6 0063053918 mi 1720392382Jul 7 2024 10:46 pm map
6 km S of Volcano, Hawaii 2.1 0063043917 mi 1720391324Jul 7 2024 10:28 pm map
Izu Islands, Japan region 4.3 0101916332 mi 1720390784Jul 7 2024 10:19 pm map
79 km NE of Finschhafen, Papua New Guinea 4.5 0126917886 mi 1720388263Jul 7 2024 9:37 pm map
93 km SSW of Alberto Oviedo Mota, B.C., MX 3.0 0024371514 mi 1720385132Jul 7 2024 8:45 pm map
30 km SE of Alamo, Nevada 2.0 0020001243 mi 1720384848Jul 7 2024 8:40 pm map
23 km SW of Lamont, CA 2.2 0024331512 mi 1720383523Jul 7 2024 8:18 pm map
77 km SSW of Ust’-Kamchatsk Staryy, Russia 5.5 0068094231 mi 1720383349Jul 7 2024 8:15 pm map
35 km WSW of Mentone, Texas 2.5 0017391080 mi 1720382477Jul 7 2024 8:01 pm map
Bonin Islands, Japan region 6.2 0104456490 mi 1720382474Jul 7 2024 8:01 pm map
24 km SW of Lamont, CA 2.4 0024341512 mi 1720377296Jul 7 2024 6:34 pm map
73 km SE of King Salmon, Alaska 2.0 0043782721 mi 1720377020Jul 7 2024 6:30 pm map
57 km E of Juneau, Alaska 3.2 0030851917 mi 1720375657Jul 7 2024 6:07 pm map
135 km NNW of San Antonio, Puerto Rico 3.5 0036742283 mi 1720374628Jul 7 2024 5:50 pm map
93 km SSW of Alberto Oviedo Mota, B.C., MX 3.4 0024371514 mi 1720372717Jul 7 2024 5:18 pm map
105 km N of San Juan, Puerto Rico 3.2 0037832351 mi 1720370124Jul 7 2024 4:35 pm map
16 km SW of Galena, Alaska 2.1 0043932730 mi 1720368381Jul 7 2024 4:06 pm map
23 km SE of Naalehu, Hawaii 2.1 0063513946 mi 1720368355Jul 7 2024 4:05 pm map
49 km NNE of Vieques, Puerto Rico 3.1 0038562396 mi 1720367865Jul 7 2024 3:57 pm map
51 km NNE of Suárez, Puerto Rico 3.3 0038552395 mi 1720367787Jul 7 2024 3:56 pm map
Fiji region 4.5 0112717004 mi 1720366538Jul 7 2024 3:35 pm map
2 km SW of Anderson Springs, CA 2.7 0025111560 mi 1720366400Jul 7 2024 3:33 pm map
138 km W of Hihifo, Tonga 4.4 0106286604 mi 1720366306Jul 7 2024 3:31 pm map
7 km SW of Volcano, Hawaii 2.2 0063073919 mi 1720364270Jul 7 2024 2:57 pm map
7 km WSW of Savália, Greece 4.7 0087285423 mi 1720363264Jul 7 2024 2:41 pm map
101 km NNW of Vallenar, Chile 4.4 0083845209 mi 1720362487Jul 7 2024 2:28 pm map
5 km S of Pāhala, Hawaii 2.0 0063403940 mi 1720359166Jul 7 2024 1:32 pm map
5 km S of Pāhala, Hawaii 2.4 0063403939 mi 1720358025Jul 7 2024 1:13 pm map
5 km S of Pāhala, Hawaii 2.3 0063393939 mi 1720358003Jul 7 2024 1:13 pm map
12 km NE of Coalinga, CA 2.4 0024561526 mi 1720353855Jul 7 2024 12:04 pm map
76 km SSW of Ust’-Kamchatsk Staryy, Russia 5.5 0068114232 mi 1720353332Jul 7 2024 11:55 am map
12 km NE of Coalinga, CA 2.9 0024561526 mi 1720352894Jul 7 2024 11:48 am map
92 km SSW of Alberto Oviedo Mota, B.C., MX 2.1 0024371514 mi 1720348577Jul 7 2024 10:36 am map
41 km SW of Nanwalek, Alaska 2.0 0041852601 mi 1720348525Jul 7 2024 10:35 am map
8 km SSE of Volcano, Hawaii 2.2 0063033917 mi 1720347006Jul 7 2024 10:10 am map
6 km NNW of Smiths Ferry, Idaho 2.0 0017981118 mi 1720346759Jul 7 2024 10:05 am map
9 km NNW of Merriman, Nebraska 2.6 000704437 mi 1720346538Jul 7 2024 10:02 am map
9 km SSE of Volcano, Hawaii 2.2 0063033916 mi 1720345811Jul 7 2024 9:50 am map
12 km SSW of Pleasant Plains, Arkansas 2.1 001057657 mi 1720344399Jul 7 2024 9:26 am map
92 km SSW of Alberto Oviedo Mota, B.C., MX 2.2 0024361514 mi 1720343940Jul 7 2024 9:19 am map
14 km SSE of Stanton, Texas 2.4 001604997 mi 1720343649Jul 7 2024 9:14 am map
6 km WSW of Hollister, CA 3.0 0025131562 mi 1720343282Jul 7 2024 9:08 am map
92 km SSW of Alberto Oviedo Mota, B.C., MX 3.0 0024361514 mi 1720342912Jul 7 2024 9:01 am map
92 km SSW of Alberto Oviedo Mota, B.C., MX 2.3 0024361514 mi 1720342218Jul 7 2024 8:50 am map
8 km SSE of Volcano, Hawaii 2.0 0063033917 mi 1720341464Jul 7 2024 8:37 am map
2 km NNW of Canyondam, CA 2.2 0023201442 mi 1720339377Jul 7 2024 8:02 am map
9 km NE of Pekalongan, Indonesia 4.6 0152339465 mi 1720337723Jul 7 2024 7:35 am map
15 km S of Fern Forest, Hawaii 2.0 0063003915 mi 1720336751Jul 7 2024 7:19 am map
32 km W of Petersville, Alaska 2.7 0041122555 mi 1720336562Jul 7 2024 7:16 am map
8 km NE of Pāhala, Hawaii 2.0 0063283932 mi 1720336248Jul 7 2024 7:10 am map
39 km NNW of Güiria, Venezuela 4.5 0047872975 mi 1720336074Jul 7 2024 7:07 am map
15 km S of Fern Forest, Hawaii 2.0 0063003915 mi 1720335329Jul 7 2024 6:55 am map
15 km S of Fern Forest, Hawaii 2.6 0063003914 mi 1720335209Jul 7 2024 6:53 am map
14 km S of Fern Forest, Hawaii 3.3 0062993914 mi 1720335089Jul 7 2024 6:51 am map
15 km S of Fern Forest, Hawaii 4.1 0062993914 mi 1720334865Jul 7 2024 6:47 am map
41 km NW of San Antonio, Puerto Rico 3.3 0037662340 mi 1720333035Jul 7 2024 6:17 am map
17 km N of Pāhala, Hawaii 2.2 0063263931 mi 1720330142Jul 7 2024 5:29 am map
40 km E of Farkhār, Afghanistan 4.3 0108156720 mi 1720329085Jul 7 2024 5:11 am map
92 km SSW of Alberto Oviedo Mota, B.C., MX 2.3 0024371514 mi 1720328517Jul 7 2024 5:01 am map
72 km S of Kokhanok, Alaska 2.0 0043142681 mi 1720328054Jul 7 2024 4:54 am map
26 km NNW of Cartagena, Chile 4.4 0089665571 mi 1720326567Jul 7 2024 4:29 am map
44 km SW of Skwentna, Alaska 2.0 0041372570 mi 1720325483Jul 7 2024 4:11 am map
10 km SSW of Mariposa, CA 2.3 0023691472 mi 1720325079Jul 7 2024 4:04 am map
94 km WNW of Skwentna, Alaska 2.3 0041982609 mi 1720323510Jul 7 2024 3:38 am map
92 km SSW of Alberto Oviedo Mota, B.C., MX 2.2 0024361514 mi 1720322352Jul 7 2024 3:19 am map
65 km E of Juneau, Alaska 3.1 0030771912 mi 1720321651Jul 7 2024 3:07 am map
34 km NW of Toyah, Texas 2.0 0017461085 mi 1720318884Jul 7 2024 2:21 am map
55 km WNW of Ninilchik, Alaska 2.1 0041812598 mi 1720318771Jul 7 2024 2:19 am map
93 km SSW of Alberto Oviedo Mota, B.C., MX 2.6 0024371514 mi 1720315787Jul 7 2024 1:29 am map
91 km SSW of Alberto Oviedo Mota, B.C., MX 3.3 0024361514 mi 1720315583Jul 7 2024 1:26 am map
20 km E of Point Possession, Alaska 2.3 0040542519 mi 1720315562Jul 7 2024 1:26 am map
92 km SSW of Alberto Oviedo Mota, B.C., MX 3.1 0024371514 mi 1720315210Jul 7 2024 1:20 am map
2 km SE of Pāhala, Hawaii 2.0 0063373937 mi 1720314933Jul 7 2024 1:15 am map
90 km WSW of Kailua-Kona, Hawaii 2.9 0064303996 mi 1720313852Jul 7 2024 12:57 am map
92 km SSW of Alberto Oviedo Mota, B.C., MX 2.7 0024371514 mi 1720313848Jul 7 2024 12:57 am map
71 km ENE of San Vicente, Mexico 3.8 0024261508 mi 1720313248Jul 7 2024 12:47 am map
45 km E of Fort Bidwell, California 2.0 0021381328 mi 1720313099Jul 7 2024 12:44 am map
50 km SSE of Denali National Park, Alaska 2.9 0041142557 mi 1720312304Jul 7 2024 12:31 am map
1 km E of New Egypt, New Jersey 2.0 0016291012 mi 1720311738Jul 7 2024 12:22 am map
10 km NE of Pāhala, Hawaii 2.2 0063263931 mi 1720309639Jul 6 2024 11:47 pm map
92 km SSW of Alberto Oviedo Mota, B.C., MX 2.4 0024361514 mi 1720309542Jul 6 2024 11:45 pm map
Prince Edward Islands region 4.9 0160369964 mi 1720309154Jul 6 2024 11:39 pm map
92 km SSW of Alberto Oviedo Mota, B.C., MX 2.4 0024361514 mi 1720308670Jul 6 2024 11:31 pm map
3 km WSW of Pāhala, Hawaii 2.3 0063403939 mi 1720305835Jul 6 2024 10:43 pm map
86 km ENE of Kinablangan, Philippines 4.5 0128818004 mi 1720305672Jul 6 2024 10:41 pm map
17 km S of Weston, Colorado 3.0 001305811 mi 1720305467Jul 6 2024 10:37 pm map
13 km ENE of Falls City, Texas 2.1 0018071123 mi 1720305307Jul 6 2024 10:35 pm map
South Sandwich Islands region 4.5 0126517861 mi 1720304679Jul 6 2024 10:24 pm map
5 km WSW of Guánica, Puerto Rico 3.0 0038672403 mi 1720303171Jul 6 2024 9:59 pm map
3 km SSE of Pāhala, Hawaii 2.3 0063373938 mi 1720302717Jul 6 2024 9:51 pm map
82 km NNW of San Antonio de los Cobres, Argentina 4.3 0080745017 mi 1720301471Jul 6 2024 9:31 pm map
50 km S of Ashkāsham, Afghanistan 4.7 0108686753 mi 1720300627Jul 6 2024 9:17 pm map
30 km SSE of Puerto Ángel, Mexico 4.1 0032862042 mi 1720297045Jul 6 2024 8:17 pm map
15 km SW of Searles Valley, CA 2.4 0022801417 mi 1720296670Jul 6 2024 8:11 pm map
12 km WNW of Point Possession, Alaska 3.2 0040862539 mi 1720296348Jul 6 2024 8:05 pm map
Rat Islands, Aleutian Islands, Alaska 4.1 0061793840 mi 1720289609Jul 6 2024 6:13 pm map
5 km SSW of Volcano, Hawaii 2.1 0063043917 mi 1720289504Jul 6 2024 6:11 pm map
6 km SSW of Volcano, Hawaii 2.2 0063053918 mi 1720289442Jul 6 2024 6:10 pm map
12 km SW of Savália, Greece 4.9 0087295424 mi 1720287267Jul 6 2024 5:34 pm map
41 km ENE of Baganga, Philippines 4.9 0129248031 mi 1720286761Jul 6 2024 5:26 pm map
3 km NW of Frazier Park, CA 2.2 0024411517 mi 1720285745Jul 6 2024 5:09 pm map
68 km NE of Adak, Alaska 4.0 0057993603 mi 1720282933Jul 6 2024 4:22 pm map
Greenland Sea 4.4 0056283497 mi 1720282065Jul 6 2024 4:07 pm map
2 km SSW of Lope de Vega, Philippines 5.0 0126017830 mi 1720281665Jul 6 2024 4:01 pm map
29 km WNW of Ollagüe, Chile 4.4 0077604822 mi 1720280722Jul 6 2024 3:45 pm map
32 km SSW of Hawthorne, Nevada 2.4 0022301386 mi 1720280399Jul 6 2024 3:39 pm map
28 km NNE of Maple Ridge, Canada 2.3 0022451395 mi 1720280174Jul 6 2024 3:36 pm map
21 km W of Acacia Bay, New Zealand 4.2 0129778063 mi 1720278220Jul 6 2024 3:03 pm map
167 km W of Adak, Alaska 2.6 0059873720 mi 1720276151Jul 6 2024 2:29 pm map
55 km S of Whites City, New Mexico 2.0 0017541090 mi 1720274949Jul 6 2024 2:09 pm map
64 km N of Petersville, Alaska 2.6 0040712530 mi 1720274442Jul 6 2024 2:00 pm map
5 km S of Magas Arriba, Puerto Rico 2.5 0038762408 mi 1720272468Jul 6 2024 1:27 pm map
43 km SSW of Gongdanglegi Kulon, Indonesia 4.4 0152729489 mi 1720272407Jul 6 2024 1:26 pm map
30 km N of Brenas, Puerto Rico 2.7 0038292379 mi 1720269204Jul 6 2024 12:33 pm map
37 km SW of Denali National Park, Alaska 2.3 0041542581 mi 1720268919Jul 6 2024 12:28 pm map
13 km N of Wai‘ōhinu, Hawaii 2.0 0063483944 mi 1720268871Jul 6 2024 12:27 pm map

479 earthquakes found. Click on location or map links for more details from the USGS


Map and data courtesy of United States Geological Survey

Script developed by  Saratoga-weather.org Adapted for the template by  Weerstation Leuven (version 3.21)

You find our weather info also at:

Weather Underground

Midwestern Weather Network

Citizen Weather Observer Program (CWOP)

HAMweather, WeatherForYou, PWS Weather

Equipment we use:

Weather-station
Davis VP2

Weather-program
Cumulus

Davis VP2

Cumulus